sensor_id;sensor_type;location;lat;lon;timestamp;pressure;altitude;pressure_sealevel;temperature;humidity
11347;BME280;5728;42.722;23.258;2023-06-14T00:01:37;94459.63;;;16.98;100.00
11347;BME280;5728;42.722;23.258;2023-06-14T00:04:05;94489.38;;;17.35;100.00
11347;BME280;5728;42.722;23.258;2023-06-14T00:06:34;94460.16;;;17.44;100.00
11347;BME280;5728;42.722;23.258;2023-06-14T00:09:01;94447.53;;;17.33;100.00
11347;BME280;5728;42.722;23.258;2023-06-14T00:11:28;94453.44;;;17.57;100.00
11347;BME280;5728;42.722;23.258;2023-06-14T00:13:57;94446.63;;;17.71;100.00
11347;BME280;5728;42.722;23.258;2023-06-14T00:16:24;94459.38;;;17.42;100.00
11347;BME280;5728;42.722;23.258;2023-06-14T00:18:51;94454.22;;;17.21;100.00
11347;BME280;5728;42.722;23.258;2023-06-14T00:21:18;94450.31;;;17.49;100.00
11347;BME280;5728;42.722;23.258;2023-06-14T00:23:45;94447.59;;;17.50;100.00
11347;BME280;5728;42.722;23.258;2023-06-14T00:26:12;94459.63;;;17.17;100.00
11347;BME280;5728;42.722;23.258;2023-06-14T00:28:39;94445.91;;;17.31;100.00
11347;BME280;5728;42.722;23.258;2023-06-14T00:31:07;94447.97;;;17.24;100.00
11347;BME280;5728;42.722;23.258;2023-06-14T00:33:35;94437.06;;;17.33;100.00
11347;BME280;5728;42.722;23.258;2023-06-14T00:36:01;94447.31;;;17.38;100.00
11347;BME280;5728;42.722;23.258;2023-06-14T00:38:28;94437.25;;;17.47;100.00
11347;BME280;5728;42.722;23.258;2023-06-14T00:40:55;94446.22;;;17.62;100.00
11347;BME280;5728;42.722;23.258;2023-06-14T00:43:22;94440.88;;;17.63;100.00
11347;BME280;5728;42.722;23.258;2023-06-14T00:45:48;94429.50;;;17.64;100.00
11347;BME280;5728;42.722;23.258;2023-06-14T00:48:18;94437.28;;;17.66;100.00
11347;BME280;5728;42.722;23.258;2023-06-14T00:50:45;94440.38;;;17.74;100.00
11347;BME280;5728;42.722;23.258;2023-06-14T00:53:14;94441.22;;;17.74;100.00
11347;BME280;5728;42.722;23.258;2023-06-14T00:55:42;94444.53;;;17.78;100.00
11347;BME280;5728;42.722;23.258;2023-06-14T00:58:09;94431.91;;;17.86;100.00
11347;BME280;5728;42.722;23.258;2023-06-14T01:00:37;94431.06;;;17.85;100.00
11347;BME280;5728;42.722;23.258;2023-06-14T01:03:03;94441.69;;;17.82;100.00
11347;BME280;5728;42.722;23.258;2023-06-14T01:05:32;94431.56;;;17.75;100.00
11347;BME280;5728;42.722;23.258;2023-06-14T01:08:08;94430.66;;;17.76;100.00
11347;BME280;5728;42.722;23.258;2023-06-14T01:10:43;94425.56;;;17.90;100.00
11347;BME280;5728;42.722;23.258;2023-06-14T01:13:19;94428.56;;;17.82;100.00
11347;BME280;5728;42.722;23.258;2023-06-14T01:15:47;94435.69;;;17.80;100.00
11347;BME280;5728;42.722;23.258;2023-06-14T01:18:14;94442.19;;;17.91;100.00
11347;BME280;5728;42.722;23.258;2023-06-14T01:20:45;94432.00;;;17.84;100.00
11347;BME280;5728;42.722;23.258;2023-06-14T01:23:16;94435.72;;;17.62;100.00
11347;BME280;5728;42.722;23.258;2023-06-14T01:25:43;94432.16;;;17.63;100.00
11347;BME280;5728;42.722;23.258;2023-06-14T01:28:10;94432.25;;;17.61;100.00
11347;BME280;5728;42.722;23.258;2023-06-14T01:30:40;94428.41;;;17.68;100.00
11347;BME280;5728;42.722;23.258;2023-06-14T01:33:11;94424.53;;;17.58;100.00
11347;BME280;5728;42.722;23.258;2023-06-14T01:35:39;94430.50;;;17.62;100.00
11347;BME280;5728;42.722;23.258;2023-06-14T01:38:06;94428.63;;;17.64;100.00
11347;BME280;5728;42.722;23.258;2023-06-14T01:40:36;94433.56;;;17.33;100.00
11347;BME280;5728;42.722;23.258;2023-06-14T01:43:04;94434.16;;;17.58;100.00
11347;BME280;5728;42.722;23.258;2023-06-14T01:45:32;94426.06;;;17.62;100.00
11347;BME280;5728;42.722;23.258;2023-06-14T01:48:00;94429.41;;;17.66;100.00
11347;BME280;5728;42.722;23.258;2023-06-14T01:50:28;94436.66;;;17.78;100.00
11347;BME280;5728;42.722;23.258;2023-06-14T01:52:55;94429.56;;;17.80;100.00
11347;BME280;5728;42.722;23.258;2023-06-14T01:55:21;94432.81;;;17.85;100.00
11347;BME280;5728;42.722;23.258;2023-06-14T01:57:51;94449.38;;;17.87;100.00
11347;BME280;5728;42.722;23.258;2023-06-14T02:00:18;94440.25;;;17.94;100.00
11347;BME280;5728;42.722;23.258;2023-06-14T02:02:45;94445.56;;;17.93;100.00
11347;BME280;5728;42.722;23.258;2023-06-14T02:05:12;94452.00;;;17.68;100.00
11347;BME280;5728;42.722;23.258;2023-06-14T02:07:40;94451.97;;;17.50;100.00
11347;BME280;5728;42.722;23.258;2023-06-14T02:10:07;94458.75;;;17.37;100.00
11347;BME280;5728;42.722;23.258;2023-06-14T02:12:34;94454.91;;;17.44;100.00
11347;BME280;5728;42.722;23.258;2023-06-14T02:15:03;94467.56;;;17.15;100.00
11347;BME280;5728;42.722;23.258;2023-06-14T02:17:31;94458.47;;;16.85;100.00
11347;BME280;5728;42.722;23.258;2023-06-14T02:19:58;94484.25;;;16.94;100.00
11347;BME280;5728;42.722;23.258;2023-06-14T02:22:25;94462.94;;;16.83;100.00
11347;BME280;5728;42.722;23.258;2023-06-14T02:24:51;94465.94;;;16.74;100.00
11347;BME280;5728;42.722;23.258;2023-06-14T02:27:18;94461.13;;;16.65;100.00
11347;BME280;5728;42.722;23.258;2023-06-14T02:29:45;94465.59;;;16.63;100.00
11347;BME280;5728;42.722;23.258;2023-06-14T02:32:13;94486.66;;;16.60;100.00
11347;BME280;5728;42.722;23.258;2023-06-14T02:34:40;94467.91;;;16.49;100.00
11347;BME280;5728;42.722;23.258;2023-06-14T02:37:06;94457.41;;;16.49;100.00
11347;BME280;5728;42.722;23.258;2023-06-14T02:39:33;94460.31;;;16.43;100.00
11347;BME280;5728;42.722;23.258;2023-06-14T02:42:00;94458.63;;;16.62;100.00
11347;BME280;5728;42.722;23.258;2023-06-14T02:44:27;94473.81;;;16.74;100.00
11347;BME280;5728;42.722;23.258;2023-06-14T02:46:54;94449.75;;;16.85;100.00
11347;BME280;5728;42.722;23.258;2023-06-14T02:49:22;94453.63;;;16.96;100.00
11347;BME280;5728;42.722;23.258;2023-06-14T02:51:49;94449.16;;;16.98;100.00
11347;BME280;5728;42.722;23.258;2023-06-14T02:54:16;94454.31;;;17.00;100.00
11347;BME280;5728;42.722;23.258;2023-06-14T02:56:43;94457.06;;;16.97;100.00
11347;BME280;5728;42.722;23.258;2023-06-14T02:59:10;94459.94;;;17.11;100.00
11347;BME280;5728;42.722;23.258;2023-06-14T03:01:36;94467.16;;;17.24;100.00
11347;BME280;5728;42.722;23.258;2023-06-14T03:04:06;94465.75;;;17.36;100.00
11347;BME280;5728;42.722;23.258;2023-06-14T03:06:34;94468.03;;;17.44;100.00
11347;BME280;5728;42.722;23.258;2023-06-14T03:09:01;94470.63;;;17.44;100.00
11347;BME280;5728;42.722;23.258;2023-06-14T03:11:30;94474.56;;;17.54;100.00
11347;BME280;5728;42.722;23.258;2023-06-14T03:13:56;94469.69;;;17.45;100.00
11347;BME280;5728;42.722;23.258;2023-06-14T03:16:23;94475.78;;;17.45;100.00
11347;BME280;5728;42.722;23.258;2023-06-14T03:18:51;94481.75;;;17.49;100.00
11347;BME280;5728;42.722;23.258;2023-06-14T03:21:18;94494.63;;;17.35;100.00
11347;BME280;5728;42.722;23.258;2023-06-14T03:23:47;94493.59;;;17.39;100.00
11347;BME280;5728;42.722;23.258;2023-06-14T03:26:14;94496.06;;;17.42;100.00
11347;BME280;5728;42.722;23.258;2023-06-14T03:28:43;94488.16;;;17.62;100.00
11347;BME280;5728;42.722;23.258;2023-06-14T03:31:09;94488.63;;;17.70;100.00
11347;BME280;5728;42.722;23.258;2023-06-14T03:33:36;94496.44;;;17.53;100.00
11347;BME280;5728;42.722;23.258;2023-06-14T03:36:03;94494.59;;;17.55;100.00
11347;BME280;5728;42.722;23.258;2023-06-14T03:38:30;94491.66;;;17.23;100.00
11347;BME280;5728;42.722;23.258;2023-06-14T03:40:59;94490.25;;;17.35;100.00
11347;BME280;5728;42.722;23.258;2023-06-14T03:43:25;94497.81;;;17.22;100.00
11347;BME280;5728;42.722;23.258;2023-06-14T03:45:52;94490.72;;;17.24;100.00
11347;BME280;5728;42.722;23.258;2023-06-14T03:48:19;94486.38;;;16.86;100.00
11347;BME280;5728;42.722;23.258;2023-06-14T03:50:45;94486.19;;;17.09;100.00
11347;BME280;5728;42.722;23.258;2023-06-14T03:53:12;94483.31;;;17.15;100.00
11347;BME280;5728;42.722;23.258;2023-06-14T03:55:39;94485.09;;;17.34;100.00
11347;BME280;5728;42.722;23.258;2023-06-14T03:58:08;94483.44;;;17.12;100.00
11347;BME280;5728;42.722;23.258;2023-06-14T04:00:35;94495.78;;;17.29;100.00
11347;BME280;5728;42.722;23.258;2023-06-14T04:03:01;94493.31;;;17.26;100.00
11347;BME280;5728;42.722;23.258;2023-06-14T04:05:31;94493.88;;;17.51;100.00
11347;BME280;5728;42.722;23.258;2023-06-14T04:07:58;94489.56;;;17.69;100.00
11347;BME280;5728;42.722;23.258;2023-06-14T04:10:26;94493.81;;;17.71;100.00
11347;BME280;5728;42.722;23.258;2023-06-14T04:12:53;94496.81;;;17.64;100.00
11347;BME280;5728;42.722;23.258;2023-06-14T04:15:21;94496.91;;;17.23;100.00
11347;BME280;5728;42.722;23.258;2023-06-14T04:17:48;94494.94;;;17.29;100.00
11347;BME280;5728;42.722;23.258;2023-06-14T04:20:16;94488.69;;;17.31;100.00
11347;BME280;5728;42.722;23.258;2023-06-14T04:22:43;94488.81;;;17.67;100.00
11347;BME280;5728;42.722;23.258;2023-06-14T04:25:10;94490.97;;;17.76;100.00
11347;BME280;5728;42.722;23.258;2023-06-14T04:27:37;94502.19;;;17.61;100.00
11347;BME280;5728;42.722;23.258;2023-06-14T04:30:06;94491.97;;;17.55;100.00
11347;BME280;5728;42.722;23.258;2023-06-14T04:32:35;94499.47;;;17.81;100.00
11347;BME280;5728;42.722;23.258;2023-06-14T04:35:04;94493.78;;;17.90;100.00
11347;BME280;5728;42.722;23.258;2023-06-14T04:37:31;94500.78;;;18.08;100.00
11347;BME280;5728;42.722;23.258;2023-06-14T04:39:58;94502.22;;;18.32;100.00
11347;BME280;5728;42.722;23.258;2023-06-14T04:42:26;94495.09;;;18.34;100.00
11347;BME280;5728;42.722;23.258;2023-06-14T04:44:56;94497.91;;;18.48;100.00
11347;BME280;5728;42.722;23.258;2023-06-14T04:47:24;94499.16;;;18.59;100.00
11347;BME280;5728;42.722;23.258;2023-06-14T04:49:57;94506.50;;;18.69;100.00
11347;BME280;5728;42.722;23.258;2023-06-14T04:52:25;94501.47;;;18.82;100.00
11347;BME280;5728;42.722;23.258;2023-06-14T04:54:55;94508.09;;;18.89;100.00
11347;BME280;5728;42.722;23.258;2023-06-14T04:57:22;94511.28;;;18.95;100.00
11347;BME280;5728;42.722;23.258;2023-06-14T04:59:50;94519.88;;;19.15;99.90
11347;BME280;5728;42.722;23.258;2023-06-14T05:02:20;94518.22;;;19.29;99.29
11347;BME280;5728;42.722;23.258;2023-06-14T05:04:47;94514.66;;;19.47;98.38
11347;BME280;5728;42.722;23.258;2023-06-14T05:07:15;94524.56;;;19.42;98.09
11347;BME280;5728;42.722;23.258;2023-06-14T05:09:42;94518.28;;;19.45;97.89
11347;BME280;5728;42.722;23.258;2023-06-14T05:12:09;94521.41;;;19.68;96.27
11347;BME280;5728;42.722;23.258;2023-06-14T05:14:43;94529.88;;;19.58;94.84
11347;BME280;5728;42.722;23.258;2023-06-14T05:17:18;94531.63;;;19.57;95.04
11347;BME280;5728;42.722;23.258;2023-06-14T05:20:23;94568.16;;;19.46;95.90
11347;BME280;5728;42.722;23.258;2023-06-14T05:22:58;94511.72;;;19.36;95.86
11347;BME280;5728;42.722;23.258;2023-06-14T05:25:30;94534.84;;;19.47;95.34
11347;BME280;5728;42.722;23.258;2023-06-14T05:27:57;94552.78;;;19.71;95.04
11347;BME280;5728;42.722;23.258;2023-06-14T05:30:24;94534.28;;;19.73;94.24
11347;BME280;5728;42.722;23.258;2023-06-14T05:32:51;94551.28;;;19.99;92.93
11347;BME280;5728;42.722;23.258;2023-06-14T05:35:18;94549.22;;;19.72;94.25
11347;BME280;5728;42.722;23.258;2023-06-14T05:37:45;94549.00;;;19.93;94.26
11347;BME280;5728;42.722;23.258;2023-06-14T05:40:14;94560.63;;;19.89;93.95
11347;BME280;5728;42.722;23.258;2023-06-14T05:42:42;94555.41;;;19.71;95.73
11347;BME280;5728;42.722;23.258;2023-06-14T05:45:09;94560.34;;;19.78;95.28
11347;BME280;5728;42.722;23.258;2023-06-14T05:47:36;94561.88;;;19.82;94.82
11347;BME280;5728;42.722;23.258;2023-06-14T05:50:03;94556.44;;;19.85;94.77
11347;BME280;5728;42.722;23.258;2023-06-14T05:52:30;94552.94;;;19.53;96.79
11347;BME280;5728;42.722;23.258;2023-06-14T05:54:56;94556.69;;;19.64;96.94
11347;BME280;5728;42.722;23.258;2023-06-14T05:57:25;94564.09;;;19.73;96.25
11347;BME280;5728;42.722;23.258;2023-06-14T05:59:52;94565.28;;;19.68;96.29
11347;BME280;5728;42.722;23.258;2023-06-14T06:02:19;94572.63;;;19.61;96.20
11347;BME280;5728;42.722;23.258;2023-06-14T06:04:46;94570.44;;;19.69;96.63
11347;BME280;5728;42.722;23.258;2023-06-14T06:07:12;94569.28;;;19.91;95.84
11347;BME280;5728;42.722;23.258;2023-06-14T06:09:40;94573.00;;;20.02;94.81
11347;BME280;5728;42.722;23.258;2023-06-14T06:12:07;94570.81;;;19.95;94.42
11347;BME280;5728;42.722;23.258;2023-06-14T06:14:35;94575.91;;;19.98;93.99
11347;BME280;5728;42.722;23.258;2023-06-14T06:17:02;94579.94;;;19.72;92.55
11347;BME280;5728;42.722;23.258;2023-06-14T06:19:29;94569.56;;;19.53;94.33
11347;BME280;5728;42.722;23.258;2023-06-14T06:21:56;94567.94;;;19.34;95.33
11347;BME280;5728;42.722;23.258;2023-06-14T06:24:22;94573.63;;;19.59;95.18
11347;BME280;5728;42.722;23.258;2023-06-14T06:26:49;94575.69;;;19.69;93.76
11347;BME280;5728;42.722;23.258;2023-06-14T06:29:16;94577.59;;;19.83;94.26
11347;BME280;5728;42.722;23.258;2023-06-14T06:31:44;94582.69;;;20.02;93.44
11347;BME280;5728;42.722;23.258;2023-06-14T06:34:11;94568.13;;;20.43;91.75
11347;BME280;5728;42.722;23.258;2023-06-14T06:36:38;94573.53;;;20.56;90.92
11347;BME280;5728;42.722;23.258;2023-06-14T06:39:05;94585.25;;;20.50;89.49
11347;BME280;5728;42.722;23.258;2023-06-14T06:41:35;94578.59;;;20.29;90.13
11347;BME280;5728;42.722;23.258;2023-06-14T06:44:03;94576.94;;;20.58;91.17
11347;BME280;5728;42.722;23.258;2023-06-14T06:46:30;94573.78;;;20.96;90.24
11347;BME280;5728;42.722;23.258;2023-06-14T06:48:58;94574.25;;;21.19;87.82
11347;BME280;5728;42.722;23.258;2023-06-14T06:51:25;94569.28;;;21.56;86.73
11347;BME280;5728;42.722;23.258;2023-06-14T06:53:52;94571.88;;;21.86;84.11
11347;BME280;5728;42.722;23.258;2023-06-14T06:56:20;94574.50;;;22.41;81.94
11347;BME280;5728;42.722;23.258;2023-06-14T06:58:48;94573.47;;;22.97;80.18
11347;BME280;5728;42.722;23.258;2023-06-14T07:01:15;94571.47;;;23.40;78.38
11347;BME280;5728;42.722;23.258;2023-06-14T07:03:42;94579.22;;;23.56;77.35
11347;BME280;5728;42.722;23.258;2023-06-14T07:06:10;94591.59;;;23.80;76.86
11347;BME280;5728;42.722;23.258;2023-06-14T07:08:37;94587.78;;;23.72;75.25
11347;BME280;5728;42.722;23.258;2023-06-14T07:11:06;94583.66;;;23.55;75.36
11347;BME280;5728;42.722;23.258;2023-06-14T07:13:33;94577.41;;;23.56;74.41
11347;BME280;5728;42.722;23.258;2023-06-14T07:16:00;94579.94;;;23.70;74.35
11347;BME280;5728;42.722;23.258;2023-06-14T07:18:27;94568.38;;;23.33;74.34
11347;BME280;5728;42.722;23.258;2023-06-14T07:20:55;94577.94;;;23.74;73.81
11347;BME280;5728;42.722;23.258;2023-06-14T07:23:23;94589.69;;;23.44;72.81
11347;BME280;5728;42.722;23.258;2023-06-14T07:25:50;94576.50;;;23.30;74.62
11347;BME280;5728;42.722;23.258;2023-06-14T07:28:17;94575.72;;;23.42;73.91
11347;BME280;5728;42.722;23.258;2023-06-14T07:30:44;94568.66;;;23.29;74.77
11347;BME280;5728;42.722;23.258;2023-06-14T07:33:11;94570.22;;;23.06;76.62
11347;BME280;5728;42.722;23.258;2023-06-14T07:35:38;94573.00;;;23.17;74.63
11347;BME280;5728;42.722;23.258;2023-06-14T07:38:05;94567.38;;;23.09;75.49
11347;BME280;5728;42.722;23.258;2023-06-14T07:40:34;94580.19;;;23.15;76.28
11347;BME280;5728;42.722;23.258;2023-06-14T07:43:00;94577.44;;;23.17;76.34
11347;BME280;5728;42.722;23.258;2023-06-14T07:45:28;94575.28;;;23.36;74.79
11347;BME280;5728;42.722;23.258;2023-06-14T07:47:54;94572.88;;;23.19;75.53
11347;BME280;5728;42.722;23.258;2023-06-14T07:50:22;94571.91;;;23.07;76.24
11347;BME280;5728;42.722;23.258;2023-06-14T07:52:49;94590.16;;;23.24;75.52
11347;BME280;5728;42.722;23.258;2023-06-14T07:55:16;94585.44;;;23.55;74.72
11347;BME280;5728;42.722;23.258;2023-06-14T07:57:44;94589.81;;;23.68;73.98
11347;BME280;5728;42.722;23.258;2023-06-14T08:00:12;94592.78;;;23.89;73.64
11347;BME280;5728;42.722;23.258;2023-06-14T08:02:41;94596.03;;;23.92;71.76
11347;BME280;5728;42.722;23.258;2023-06-14T08:05:09;94593.31;;;23.94;72.82
11347;BME280;5728;42.722;23.258;2023-06-14T08:07:36;94591.72;;;23.79;72.79
11347;BME280;5728;42.722;23.258;2023-06-14T08:10:04;94596.91;;;23.68;72.11
11347;BME280;5728;42.722;23.258;2023-06-14T08:12:31;94601.97;;;23.96;72.42
11347;BME280;5728;42.722;23.258;2023-06-14T08:14:59;94608.97;;;24.58;69.40
11347;BME280;5728;42.722;23.258;2023-06-14T08:17:26;94618.25;;;24.77;69.12
11347;BME280;5728;42.722;23.258;2023-06-14T08:19:53;94618.16;;;24.78;69.54
11347;BME280;5728;42.722;23.258;2023-06-14T08:22:22;94606.47;;;25.28;66.51
11347;BME280;5728;42.722;23.258;2023-06-14T08:24:50;94612.41;;;25.55;63.43
11347;BME280;5728;42.722;23.258;2023-06-14T08:27:16;94605.19;;;25.79;63.87
11347;BME280;5728;42.722;23.258;2023-06-14T08:29:44;94603.75;;;25.86;63.00
11347;BME280;5728;42.722;23.258;2023-06-14T08:32:12;94614.13;;;26.00;63.70
11347;BME280;5728;42.722;23.258;2023-06-14T08:34:38;94606.94;;;26.14;63.85
11347;BME280;5728;42.722;23.258;2023-06-14T08:37:05;94611.47;;;26.00;65.51
11347;BME280;5728;42.722;23.258;2023-06-14T08:39:33;94610.31;;;26.16;64.73
11347;BME280;5728;42.722;23.258;2023-06-14T08:42:01;94603.09;;;26.40;62.00
11347;BME280;5728;42.722;23.258;2023-06-14T08:44:28;94599.16;;;26.88;60.22
11347;BME280;5728;42.722;23.258;2023-06-14T08:46:55;94600.28;;;27.49;59.18
11347;BME280;5728;42.722;23.258;2023-06-14T08:49:25;94596.19;;;27.66;56.43
11347;BME280;5728;42.722;23.258;2023-06-14T08:51:56;94604.91;;;27.04;58.36
11347;BME280;5728;42.722;23.258;2023-06-14T08:54:25;94588.44;;;27.10;58.25
11347;BME280;5728;42.722;23.258;2023-06-14T08:56:53;94593.75;;;26.68;58.54
11347;BME280;5728;42.722;23.258;2023-06-14T08:59:24;94601.09;;;26.64;60.17
11347;BME280;5728;42.722;23.258;2023-06-14T09:01:52;94603.06;;;26.51;59.15
11347;BME280;5728;42.722;23.258;2023-06-14T09:04:19;94593.16;;;26.31;61.15
11347;BME280;5728;42.722;23.258;2023-06-14T09:06:48;94594.50;;;26.25;61.31
11347;BME280;5728;42.722;23.258;2023-06-14T09:09:19;94596.31;;;26.14;60.78
11347;BME280;5728;42.722;23.258;2023-06-14T09:11:46;94593.72;;;25.79;61.90
11347;BME280;5728;42.722;23.258;2023-06-14T09:14:13;94582.91;;;26.37;61.84
11347;BME280;5728;42.722;23.258;2023-06-14T09:16:40;94579.25;;;26.38;60.55
11347;BME280;5728;42.722;23.258;2023-06-14T09:19:07;94579.59;;;26.56;59.53
11347;BME280;5728;42.722;23.258;2023-06-14T09:21:34;94584.00;;;26.13;60.21
11347;BME280;5728;42.722;23.258;2023-06-14T09:24:05;94569.47;;;25.94;61.15
11347;BME280;5728;42.722;23.258;2023-06-14T09:26:32;94589.31;;;26.13;58.69
11347;BME280;5728;42.722;23.258;2023-06-14T09:28:59;94574.72;;;26.72;56.35
11347;BME280;5728;42.722;23.258;2023-06-14T09:31:26;94577.16;;;26.64;58.93
11347;BME280;5728;42.722;23.258;2023-06-14T09:33:57;94573.50;;;26.87;57.05
11347;BME280;5728;42.722;23.258;2023-06-14T09:36:25;94572.09;;;26.83;56.90
11347;BME280;5728;42.722;23.258;2023-06-14T09:38:52;94572.28;;;26.91;57.99
11347;BME280;5728;42.722;23.258;2023-06-14T09:41:21;94570.81;;;26.33;56.22
11347;BME280;5728;42.722;23.258;2023-06-14T09:43:57;94564.34;;;26.80;56.55
11347;BME280;5728;42.722;23.258;2023-06-14T09:46:26;94567.41;;;27.07;56.78
11347;BME280;5728;42.722;23.258;2023-06-14T09:48:53;94563.16;;;26.51;57.79
11347;BME280;5728;42.722;23.258;2023-06-14T09:51:22;94566.06;;;26.59;58.22
11347;BME280;5728;42.722;23.258;2023-06-14T09:53:49;94567.84;;;26.58;60.02
11347;BME280;5728;42.722;23.258;2023-06-14T09:56:23;94556.66;;;26.44;58.38
11347;BME280;5728;42.722;23.258;2023-06-14T09:58:55;94562.50;;;26.92;57.70
11347;BME280;5728;42.722;23.258;2023-06-14T10:01:23;94556.06;;;26.94;56.17
11347;BME280;5728;42.722;23.258;2023-06-14T10:03:50;94565.78;;;27.48;55.37
11347;BME280;5728;42.722;23.258;2023-06-14T10:06:22;94552.97;;;28.04;54.05
11347;BME280;5728;42.722;23.258;2023-06-14T10:08:51;94553.72;;;27.44;54.40
11347;BME280;5728;42.722;23.258;2023-06-14T10:11:18;94554.53;;;27.44;54.88
11347;BME280;5728;42.722;23.258;2023-06-14T10:13:47;94537.78;;;27.21;54.36
11347;BME280;5728;42.722;23.258;2023-06-14T10:16:18;94538.56;;;27.12;54.70
11347;BME280;5728;42.722;23.258;2023-06-14T10:18:50;94540.44;;;27.74;53.87
11347;BME280;5728;42.722;23.258;2023-06-14T10:21:26;94541.53;;;28.22;52.92
11347;BME280;5728;42.722;23.258;2023-06-14T10:23:56;94527.88;;;28.56;51.51
11347;BME280;5728;42.722;23.258;2023-06-14T10:26:26;94532.97;;;28.68;49.73
11347;BME280;5728;42.722;23.258;2023-06-14T10:29:06;94541.44;;;28.83;50.56
11347;BME280;5728;42.722;23.258;2023-06-14T10:31:41;94529.41;;;29.55;50.16
11347;BME280;5728;42.722;23.258;2023-06-14T10:34:09;94530.66;;;29.51;48.75
11347;BME280;5728;42.722;23.258;2023-06-14T10:36:36;94529.41;;;29.07;50.19
11347;BME280;5728;42.722;23.258;2023-06-14T10:39:05;94529.41;;;29.36;49.31
11347;BME280;5728;42.722;23.258;2023-06-14T10:41:35;94528.38;;;29.56;49.22
11347;BME280;5728;42.722;23.258;2023-06-14T10:44:41;94518.28;;;30.06;47.01
11347;BME280;5728;42.722;23.258;2023-06-14T10:47:28;94518.41;;;30.14;47.32
11347;BME280;5728;42.722;23.258;2023-06-14T10:49:58;94508.72;;;29.38;47.58
11347;BME280;5728;42.722;23.258;2023-06-14T10:52:33;94511.09;;;29.03;48.36
11347;BME280;5728;42.722;23.258;2023-06-14T10:55:10;94511.09;;;29.03;49.37
11347;BME280;5728;42.722;23.258;2023-06-14T10:57:40;94504.34;;;29.56;48.44
11347;BME280;5728;42.722;23.258;2023-06-14T11:00:10;94500.94;;;29.64;49.09
11347;BME280;5728;42.722;23.258;2023-06-14T11:05:59;94491.09;;;29.64;48.87
11347;BME280;5728;42.722;23.258;2023-06-14T11:08:39;94491.38;;;29.81;47.22
11347;BME280;5728;42.722;23.258;2023-06-14T11:11:08;94482.59;;;29.98;49.01
11347;BME280;5728;42.722;23.258;2023-06-14T11:13:37;94483.38;;;30.62;45.67
11347;BME280;5728;42.722;23.258;2023-06-14T11:16:12;94488.47;;;30.38;45.69
11347;BME280;5728;42.722;23.258;2023-06-14T11:18:39;94480.50;;;30.19;46.94
11347;BME280;5728;42.722;23.258;2023-06-14T11:21:07;94480.75;;;29.42;48.11
11347;BME280;5728;42.722;23.258;2023-06-14T11:23:35;94478.50;;;29.47;48.27
11347;BME280;5728;42.722;23.258;2023-06-14T11:26:02;94485.25;;;29.32;48.81
11347;BME280;5728;42.722;23.258;2023-06-14T11:28:37;94485.50;;;30.04;46.97
11347;BME280;5728;42.722;23.258;2023-06-14T11:31:04;94476.97;;;30.73;45.52
11347;BME280;5728;42.722;23.258;2023-06-14T11:33:33;94477.78;;;29.45;47.75
11347;BME280;5728;42.722;23.258;2023-06-14T11:36:01;94488.03;;;28.73;47.73
11347;BME280;5728;42.722;23.258;2023-06-14T11:38:28;94476.84;;;29.27;48.01
11347;BME280;5728;42.722;23.258;2023-06-14T11:40:58;94465.28;;;29.92;48.50
11347;BME280;5728;42.722;23.258;2023-06-14T11:43:25;94468.91;;;30.38;45.41
11347;BME280;5728;42.722;23.258;2023-06-14T11:45:53;94459.09;;;30.19;45.47
11347;BME280;5728;42.722;23.258;2023-06-14T11:48:19;94463.25;;;30.41;45.17
11347;BME280;5728;42.722;23.258;2023-06-14T11:50:50;94448.97;;;30.67;44.63
11347;BME280;5728;42.722;23.258;2023-06-14T11:53:18;94458.53;;;30.87;43.95
11347;BME280;5728;42.722;23.258;2023-06-14T11:55:45;94463.50;;;31.35;43.69
11347;BME280;5728;42.722;23.258;2023-06-14T11:58:13;94451.56;;;31.30;42.38
11347;BME280;5728;42.722;23.258;2023-06-14T12:00:41;94452.38;;;31.66;43.37
11347;BME280;5728;42.722;23.258;2023-06-14T12:03:09;94448.75;;;32.00;41.10
11347;BME280;5728;42.722;23.258;2023-06-14T12:05:36;94441.81;;;32.24;40.53
11347;BME280;5728;42.722;23.258;2023-06-14T12:08:05;94442.75;;;32.06;39.07
11347;BME280;5728;42.722;23.258;2023-06-14T12:10:40;94431.34;;;31.79;40.72
11347;BME280;5728;42.722;23.258;2023-06-14T12:13:09;94427.66;;;31.11;41.72
11347;BME280;5728;42.722;23.258;2023-06-14T12:15:37;94427.03;;;30.64;42.35
11347;BME280;5728;42.722;23.258;2023-06-14T12:18:05;94427.50;;;30.94;44.17
11347;BME280;5728;42.722;23.258;2023-06-14T12:20:33;94425.53;;;30.97;42.79
11347;BME280;5728;42.722;23.258;2023-06-14T12:23:05;94412.94;;;30.44;44.03
11347;BME280;5728;42.722;23.258;2023-06-14T12:25:35;94417.09;;;31.35;42.08
11347;BME280;5728;42.722;23.258;2023-06-14T12:28:07;94416.03;;;31.02;44.65
11347;BME280;5728;42.722;23.258;2023-06-14T12:30:36;94420.06;;;31.75;41.34
11347;BME280;5728;42.722;23.258;2023-06-14T12:33:04;94414.41;;;31.52;40.50
11347;BME280;5728;42.722;23.258;2023-06-14T12:35:36;94415.44;;;31.85;42.77
11347;BME280;5728;42.722;23.258;2023-06-14T12:38:08;94398.69;;;32.17;40.71
11347;BME280;5728;42.722;23.258;2023-06-14T12:40:37;94393.97;;;32.69;38.98
11347;BME280;5728;42.722;23.258;2023-06-14T12:43:07;94389.34;;;31.95;39.26
11347;BME280;5728;42.722;23.258;2023-06-14T12:45:34;94382.41;;;31.85;40.32
11347;BME280;5728;42.722;23.258;2023-06-14T12:48:02;94406.66;;;31.24;40.82
11347;BME280;5728;42.722;23.258;2023-06-14T12:50:30;94393.16;;;30.27;41.39
11347;BME280;5728;42.722;23.258;2023-06-14T12:52:58;94383.63;;;29.61;43.32
11347;BME280;5728;42.722;23.258;2023-06-14T12:55:28;94383.00;;;29.77;43.42
11347;BME280;5728;42.722;23.258;2023-06-14T12:57:56;94368.81;;;29.86;42.33
11347;BME280;5728;42.722;23.258;2023-06-14T13:00:23;94376.09;;;29.84;42.64
11347;BME280;5728;42.722;23.258;2023-06-14T13:02:51;94384.13;;;29.84;42.69
11347;BME280;5728;42.722;23.258;2023-06-14T13:05:18;94373.44;;;29.74;43.55